Latest Weather Observations for Blackwater Airport

IDQ60801

Issued at 3:22 pm EST Tuesday 29 September 2020 (issued every 10 minutes, with the page automatically refreshed every 10 minutes)

About weather observations | Map of weather stations | Latest weather observations for QLD | Other Formats
Station Details ID: 035134 Name: BLACKWATER AIRPORT Lat: -23.60 Lon: 148.81 Height: 192.95 m
Data from the previous 72 hours. | See also: Recent months at Blackwater Airport
Date/Time
EST
Temp
°C
App
Temp
°C
Dew
Point
°C
Rel
Hum
%
Delta-T
°C
Wind Press
QNH
hPa
Press
MSL
hPa
Rain since
9am
mm
Dir  Spd
km/h
Gust
km/h
Spd
kts
Gust
kts
29/03:00pm 26.8 22.8 8.3 31 10.1 ENE 19 30 10 16 1016.9 1016.2 0.0
29/02:30pm 26.9 23.7 8.4 31 10.1 ENE 15 28 8 15 1017.3 1016.6 0.0
29/02:00pm 29.2 26.2 9.3 29 11.2 NNE 15 24 8 13 1018.0 1017.3 0.0
29/01:30pm 26.8 22.2 8.3 31 10.1 ENE 22 39 12 21 1018.7 1018.0 0.0
29/01:00pm 26.4 22.3 8.8 33 9.6 NE 20 30 11 16 1019.7 1019.0 0.0
29/12:30pm 26.6 23.3 9.5 34 9.5 NE 17 30 9 16 1020.3 1019.6 0.0
29/12:00pm 26.9 23.2 10.2 35 9.4 NE 20 30 11 16 1021.0 1020.3 0.0
29/11:30am 24.6 20.8 9.7 39 8.2 NE 20 33 11 18 1021.5 1020.8 0.0
29/11:00am 25.9 22.5 11.3 40 8.3 NE 20 35 11 19 1022.0 1021.3 0.0
29/10:30am 25.4 21.3 10.1 38 8.5 ENE 22 33 12 18 1022.4 1021.7 0.0
29/10:00am 24.2 20.3 10.8 43 7.5 ENE 22 33 12 18 1022.7 1022.0 0.0
29/09:30am 23.8 20.2 11.8 47 6.8 ENE 22 35 12 19 1022.9 1022.2 0.0
29/09:00am 22.9 18.6 12.2 51 6.1 ENE 26 35 14 19 1022.9 1022.2 0.0
29/08:30am 22.2 18.4 12.5 54 5.6 ENE 24 39 13 21 1022.9 1022.2 0.0
29/08:00am 21.0 16.8 12.4 58 4.9 ENE 26 35 14 19 1022.7 1022.0 0.0
29/07:30am 20.2 16.3 12.2 60 4.5 ENE 24 37 13 20 1022.4 1021.7 0.0
29/07:00am 19.3 16.4 12.3 64 3.9 ENE 19 28 10 15 1021.9 1021.2 0.0
29/06:30am 18.1 16.3 12.1 68 3.3 ENE 13 20 7 11 1021.3 1020.6 0.0
29/06:00am 17.1 14.9 12.0 72 2.8 E 15 22 8 12 1020.9 1020.2 0.0
29/05:30am 17.0 15.1 11.7 71 2.9 ENE 13 19 7 10 1020.7 1020.0 0.0
29/05:00am 17.3 15.0 11.6 69 3.1 ENE 15 20 8 11 1020.4 1019.7 0.0
29/04:30am 17.2 15.6 11.5 69 3.1 NE 11 15 6 8 1020.1 1019.4 0.0
29/04:00am 17.2 15.2 11.5 69 3.1 ENE 13 19 7 10 1019.8 1019.1 0.0
29/03:30am 16.6 15.3 11.3 71 2.9 NE 9 13 5 7 1019.9 1019.2 0.0
29/03:00am 16.3 14.2 11.0 71 2.9 ENE 13 17 7 9 1020.0 1019.3 0.0
29/02:30am 16.4 14.2 10.7 69 3.1 ENE 13 15 7 8 1020.0 1019.3 0.0
29/02:00am 16.8 14.2 10.6 67 3.3 ENE 15 19 8 10 1020.0 1019.3 0.0
29/01:30am 17.2 14.6 10.8 66 3.5 ENE 15 20 8 11 1020.4 1019.7 0.0
29/01:00am 17.3 14.7 10.7 65 3.6 NE 15 20 8 11 1020.5 1019.8 0.0
29/12:30am 17.9 14.6 10.8 63 3.9 ENE 19 26 10 14 1020.7 1020.0 0.0
29/12:00am 18.1 14.8 11.0 63 3.9 ENE 19 28 10 15 1020.7 1020.0 0.0
 
Date/Time
EST
Temp
°C
App
Temp
°C
Dew
Point
°C
Rel
Hum
%
Delta-T
°C
Wind Press
QNH
hPa
Press
MSL
hPa
Rain since
9am
mm
Dir  Spd
km/h
Gust
km/h
Spd
kts
Gust
kts
28/11:30pm 18.5 14.7 11.1 62 4.1 ENE 22 33 12 18 1020.8 1020.1 0.0
28/11:00pm 18.9 14.7 11.2 61 4.2 ENE 24 33 13 18 1020.9 1020.2 0.0
28/10:30pm 19.3 15.9 11.3 60 4.4 ENE 20 30 11 16 1021.2 1020.5 0.0
28/10:00pm 19.8 16.1 11.6 59 4.6 ENE 22 35 12 19 1021.2 1020.5 0.0
28/09:30pm 20.6 16.6 11.8 57 4.9 ENE 24 33 13 18 1021.0 1020.3 0.0
28/09:00pm 20.8 18.6 12.0 57 4.9 NE 15 19 8 10 1020.8 1020.1 0.0
28/08:30pm 21.7 18.6 12.3 55 5.4 NE 20 32 11 17 1020.4 1019.7 0.0
28/08:00pm 22.5 19.0 12.2 52 5.9 NE 22 35 12 19 1020.1 1019.4 0.0
28/07:30pm 23.6 19.5 11.6 47 6.8 NE 24 37 13 20 1019.3 1018.7 0.0
28/07:00pm 24.7 19.9 11.6 44 7.5 NE 28 39 15 21 1018.8 1018.1 0.0
28/06:52pm 25.2 20.7 11.4 42 7.9 ENE 26 39 14 21 1018.6 1017.9 0.0
28/06:30pm 25.1 21.8 6.3 30 9.8 E 13 15 7 8 1018.1 1017.4 0.0
28/06:00pm 26.4 23.9 6.4 28 10.5 ESE 9 11 5 6 1017.5 1016.8 0.0
28/05:30pm 27.8 24.9 6.6 26 11.3 ESE 11 17 6 9 1017.1 1016.4 0.0
28/05:00pm 28.6 24.6 6.7 25 11.7 E 17 22 9 12 1016.9 1016.2 0.0
28/04:30pm 29.3 25.8 7.2 25 12.0 ENE 15 22 8 12 1016.7 1016.0 0.0
28/04:00pm 28.8 26.7 6.8 25 11.8 SE 7 11 4 6 1016.6 1015.9 0.0
28/03:30pm 29.1 26.6 8.2 27 11.5 ENE 11 17 6 9 1016.8 1016.1 0.0
28/03:00pm 29.1 26.9 7.7 26 11.7 SE 9 15 5 8 1017.0 1016.3 0.0
28/02:30pm 29.4 26.4 7.9 26 11.8 NE 13 22 7 12 1017.3 1016.6 0.0
28/02:00pm 27.2 23.8 9.1 32 10.0 ESE 17 24 9 13 1017.9 1017.2 0.0
28/01:30pm 28.7 25.6 10.4 32 10.4 NE 17 33 9 18 1018.4 1017.7 0.0
28/01:00pm 27.8 24.6 10.1 33 10.0 NE 17 39 9 21 1019.0 1018.3 0.0
28/12:30pm 28.0 25.1 11.1 35 9.7 ENE 17 35 9 19 1019.6 1018.9 0.0
28/12:00pm 25.9 23.1 11.3 40 8.3 ENE 17 32 9 17 1020.3 1019.6 0.0
28/11:30am 26.1 23.0 10.3 37 8.9 NE 17 30 9 16 1021.0 1020.3 0.0
28/11:00am 26.0 23.2 12.5 43 7.8 E 19 32 10 17 1021.5 1020.8 0.0
28/10:30am 25.5 23.0 12.4 44 7.6 ENE 17 28 9 15 1022.0 1021.3 0.0
28/10:00am 24.5 21.7 12.5 47 6.9 ENE 19 28 10 15 1022.2 1021.5 0.0
28/09:30am 24.6 22.5 13.5 50 6.5 NE 17 28 9 15 1022.4 1021.7 0.0
28/09:00am 22.9 21.4 14.2 58 5.1 E 15 22 8 12 1022.4 1021.7 0.0
28/08:30am 22.8 20.8 13.8 57 5.3 ENE 17 26 9 14 1022.3 1021.6 0.0
28/08:00am 20.8 19.2 15.1 70 3.4 E 17 24 9 13 1022.1 1021.4 0.0
28/07:30am 20.3 19.7 14.7 70 3.3 ESE 11 19 6 10 1021.8 1021.1 0.0
28/07:00am 18.7 18.3 13.1 70 3.2 SE 7 9 4 5 1021.6 1020.9 0.0
28/06:30am 16.7 15.9 12.8 78 2.2 SE 9 11 5 6 1021.4 1020.7 0.0
28/06:00am 16.0 15.1 13.7 86 1.3 ESE 11 13 6 7 1021.1 1020.4 0.0
28/05:30am 15.7 15.1 13.4 86 1.3 ESE 9 11 5 6 1020.8 1020.1 0.0
28/05:00am 15.5 14.8 13.2 86 1.3 ESE 9 11 5 6 1020.5 1019.8 0.0
28/04:30am 15.6 14.5 13.1 85 1.4 E 11 15 6 8 1020.3 1019.6 0.0
28/04:00am 15.7 14.6 13.0 84 1.5 E 11 15 6 8 1020.1 1019.4 0.0
28/03:30am 16.0 14.8 12.7 81 1.8 E 11 13 6 7 1020.1 1019.4 0.0
28/03:00am 16.3 15.2 11.9 75 2.4 E 9 13 5 7 1020.0 1019.3 0.0
28/02:30am 16.8 15.0 12.1 74 2.6 ENE 13 19 7 10 1019.8 1019.1 0.0
28/02:00am 17.5 15.3 12.2 71 2.9 E 15 20 8 11 1020.1 1019.4 0.0
28/01:30am 17.5 15.3 10.9 65 3.6 ENE 13 17 7 9 1020.2 1019.5 0.0
28/01:00am 18.1 15.8 10.5 61 4.1 ENE 13 19 7 10 1020.2 1019.5 0.0
28/12:30am 18.1 15.3 8.4 53 5.0 ENE 13 19 7 10 1020.3 1019.6 0.0
28/12:00am 19.4 15.5 7.2 45 6.2 ENE 17 26 9 14 1020.3 1019.6 0.0
 
Date/Time
EST
Temp
°C
App
Temp
°C
Dew
Point
°C
Rel
Hum
%
Delta-T
°C
Wind Press
QNH
hPa
Press
MSL
hPa
Rain since
9am
mm
Dir  Spd
km/h
Gust
km/h
Spd
kts
Gust
kts
27/11:30pm 19.8 15.9 7.2 44 6.5 ENE 17 28 9 15 1020.4 1019.7 0.0
27/11:00pm 20.3 15.5 4.8 36 7.6 ENE 19 26 10 14 1020.3 1019.6 0.0
27/10:30pm 21.2 15.3 5.6 36 7.8 ENE 26 39 14 21 1020.3 1019.6 0.0
27/10:00pm 20.3 15.1 -2.7 21 9.7 E 15 24 8 13 1020.1 1019.4 0.0
27/09:30pm 20.5 16.1 -2.5 21 9.8 ESE 11 15 6 8 1019.7 1019.0 0.0
27/09:00pm 20.3 15.9 -2.1 22 9.6 SE 11 15 6 8 1019.7 1019.0 0.0
27/08:30pm 21.3 15.7 -3.2 19 10.4 SSE 17 20 9 11 1019.3 1018.7 0.0
27/08:00pm 21.3 16.5 -2.5 20 10.2 ESE 13 20 7 11 1019.1 1018.4 0.0
27/07:30pm 23.0 17.5 -1.8 19 11.0 S 17 19 9 10 1018.8 1018.1 0.0
27/07:00pm 23.6 17.9 -3.7 16 11.7 S 17 19 9 10 1018.7 1018.0 0.0
27/06:30pm 24.4 19.1 -3.9 15 12.2 S 15 17 8 9 1018.3 1017.6 0.0
27/06:00pm 25.3 20.4 -3.2 15 12.5 SSW 13 19 7 10 1017.9 1017.2 0.0
27/05:30pm 27.6 21.3 -4.3 12 14.0 SSW 20 26 11 14 1017.4 1016.7 0.0
27/05:00pm 29.0 22.7 -4.4 11 14.8 SW 20 28 11 15 1017.2 1016.5 0.0
27/04:30pm 29.5 23.6 -5.3 10 15.2 WSW 17 28 9 15 1016.8 1016.1 0.0
27/04:00pm 29.8 24.0 -5.1 10 15.3 WSW 17 28 9 15 1016.5 1015.8 0.0
27/03:30pm 29.8 25.2 -3.8 11 15.1 SW 11 20 6 11 1016.5 1015.8 0.0
27/03:00pm 30.2 25.3 -3.5 11 15.3 WNW 13 20 7 11 1016.7 1016.0 0.0
27/02:30pm 30.0 24.4 -2.5 12 15.0 NW 17 22 9 12 1016.9 1016.2 0.0
27/02:00pm 28.6 24.6 -2.5 13 14.2 SW 9 17 5 9 1017.4 1016.7 0.0
27/01:30pm 29.2 25.6 -2.0 13 14.4 WSW 7 17 4 9 1018.1 1017.4 0.0
27/01:00pm 28.8 25.3 -1.3 14 14.0 N 7 13 4 7 1018.5 1017.8 0.0
27/12:30pm 26.9 24.1 -0.2 17 12.7 NW 4 9 2 5 1019.3 1018.7 0.0
27/12:00pm 26.9 22.4 -0.2 17 12.7 NE 13 22 7 12 1019.9 1019.2 0.0
27/11:30am 26.4 21.0 -1.4 16 12.7 NE 17 26 9 14 1020.4 1019.7 0.0
27/11:00am 26.1 21.3 -2.5 15 12.8 E 13 28 7 15 1020.9 1020.2 0.0
27/10:30am 25.0 20.6 -2.5 16 12.2 ESE 11 20 6 11 1021.4 1020.7 0.0
27/10:00am 23.6 19.8 -3.7 16 11.6 ESE 7 15 4 8 1021.8 1021.1 0.0
27/09:30am 23.4 19.1 -4.7 15 11.8 SE 9 15 5 8 1021.9 1021.2 0.0
27/09:00am 22.6 18.6 -5.3 15 11.4 N 7 11 4 6 1022.0 1021.3 0.0
27/08:30am 21.9 18.2 -4.2 17 10.9 ENE 6 11 3 6 1022.0 1021.3 0.0
27/08:00am 20.1 15.0 -4.9 18 10.1 SSE 13 17 7 9 1021.7 1021.0 0.0
27/07:30am 18.6 13.5 -4.8 20 9.3 SSE 13 17 7 9 1021.3 1020.6 0.0
27/07:00am 15.2 12.1 -0.1 35 6.5 SSW 6 9 3 5 1021.2 1020.5 0.0
27/06:30am 11.6 9.6 0.1 45 4.8 CALM 0 0 0 0 1020.7 1020.0 0.0
27/06:00am 9.9 6.2 0.0 50 4.0 SW 9 11 5 6 1020.1 1019.4 0.0
27/05:30am 10.4 7.1 -0.1 48 4.3 WSW 7 11 4 6 1019.7 1019.0 0.0
27/05:00am 10.3 8.3 0.1 49 4.2 CALM 0 0 0 0 1019.3 1018.7 0.0
27/04:30am 10.9 8.5 -0.5 45 4.6 N 2 6 1 3 1018.8 1018.1 0.0
27/04:00am 9.8 6.5 -0.1 50 4.0 N 7 9 4 5 1018.6 1017.9 0.0
27/03:30am 11.1 7.9 -0.7 44 4.8 WSW 6 9 3 5 1018.4 1017.7 0.0
27/03:00am 11.9 8.6 0.1 44 4.9 W 7 9 4 5 1018.4 1017.7 0.0
27/02:30am 13.4 11.3 -1.0 37 5.9 CALM 0 2 0 1 1018.3 1017.6 0.0
27/02:00am 14.0 10.7 -1.2 35 6.2 ESE 6 9 3 5 1018.3 1017.6 0.0
27/01:30am 12.5 10.2 0.6 44 5.0 SSW 2 7 1 4 1018.2 1017.5 0.0
27/01:00am 14.0 10.7 0.3 39 5.8 SSW 7 11 4 6 1018.4 1017.7 0.0
27/12:30am 14.1 11.5 1.1 41 5.6 WSW 4 7 2 4 1018.7 1018.0 0.0
27/12:00am 15.0 12.1 1.2 39 6.0 WSW 6 7 3 4 1018.8 1018.1 0.0
 
Date/Time
EST
Temp
°C
App
Temp
°C
Dew
Point
°C
Rel
Hum
%
Delta-T
°C
Wind Press
QNH
hPa
Press
MSL
hPa
Rain since
9am
mm
Dir  Spd
km/h
Gust
km/h
Spd
kts
Gust
kts
26/11:30pm 16.6 13.6 0.7 34 7.0 SSE 6 9 3 5 1018.6 1017.9 0.0
26/11:00pm 18.4 14.8 0.5 30 7.9 ENE 9 15 5 8 1018.5 1017.8 0.0
26/10:30pm 17.6 12.9 1.2 33 7.3 S 15 17 8 9 1018.2 1017.5 0.0
26/10:00pm 17.5 13.0 1.9 35 7.1 SSW 15 17 8 9 1018.2 1017.5 0.0
26/09:30pm 17.3 13.2 2.1 36 6.9 SSW 13 15 7 8 1018.2 1017.5 0.0
26/09:00pm 18.6 14.1 2.0 33 7.6 SSW 15 17 8 9 1018.0 1017.3 0.0
26/08:30pm 18.7 14.2 2.1 33 7.6 S 15 17 8 9 1017.5 1016.8 0.0
26/08:00pm 19.4 15.2 1.9 31 8.1 S 13 15 7 8 1017.1 1016.4 0.0
26/07:30pm 22.1 17.7 0.6 24 9.9 S 13 15 7 8 1016.7 1016.0 0.0
26/07:00pm 23.2 18.8 0.3 22 10.5 S 13 13 7 7 1016.2 1015.5 0.0
26/06:30pm 24.5 19.7 0.1 20 11.3 SSW 15 19 8 10 1015.8 1015.1 0.0
26/06:00pm 26.4 20.7 -0.6 17 12.5 SSW 19 26 10 14 1015.2 1014.5 0.0
26/05:30pm 28.3 22.4 -0.8 15 13.7 SSW 20 30 11 16 1014.6 1013.8 0.0
26/05:00pm 29.9 22.8 -1.5 13 14.7 SW 26 33 14 18 1014.2 1013.4 0.0
26/04:30pm 30.3 22.8 -1.2 13 14.9 SW 28 41 15 22 1013.8 1013.1 0.0
26/04:00pm 30.2 24.4 -1.2 13 14.8 WSW 19 32 10 17 1013.7 1013.0 0.0
26/03:30pm 29.5 25.1 0.2 15 14.1 WSW 13 24 7 13 1013.8 1013.1 0.0

Other formats

Comma delimited format used in spreadsheet applications
http://www.bom.gov.au/fwo/IDQ60801/IDQ60801.94398.axf

JavaScript Object Notation format (JSON) in row-major order
http://www.bom.gov.au/fwo/IDQ60801/IDQ60801.94398.json

Data quality

Most of these data are generated automatically and are frequently updated. Quality checks on data are not normally performed. It is possible for incorrect values to appear. Refer to information at About Latest Weather Observations and please check the disclaimer before using these data.